Time;durP1;ratioP1;P1;durP2;ratioP2;P2;SDS_P1;SDS_P2;PMS_P1;PMS_P2;Temp;Humidity;BMP_temperature;BMP_pressure;BME280_temperature;BME280_humidity;BME280_pressure;Samples;Min_cycle;Max_cycle;Signal;HPM_P1;HPM_P2
2023/07/26 00:00:04;;;;;;;8.90;5.63;;;15.60;36.60;;;;;;5006066;28;20479;-68
2023/07/26 00:02:31;;;;;;;7.30;5.40;;;15.60;36.50;;;;;;5006937;28;20507;-68
2023/07/26 00:04:58;;;;;;;8.87;5.50;;;15.50;36.60;;;;;;5002983;28;20491;-68
2023/07/26 00:07:24;;;;;;;10.47;5.60;;;15.50;36.60;;;;;;5003717;28;20488;-68
2023/07/26 00:09:51;;;;;;;8.70;5.70;;;15.50;36.50;;;;;;5003291;28;20956;-67
2023/07/26 00:12:18;;;;;;;10.27;5.97;;;15.50;36.50;;;;;;5003816;28;20456;-67
2023/07/26 00:14:44;;;;;;;10.53;6.37;;;15.50;36.60;;;;;;5000850;28;20487;-67
2023/07/26 00:17:12;;;;;;;9.97;6.30;;;15.50;36.80;;;;;;4998443;28;20461;-68
2023/07/26 00:19:39;;;;;;;13.33;6.57;;;15.50;36.60;;;;;;4996512;28;20464;-68
2023/07/26 00:22:06;;;;;;;9.20;6.43;;;15.50;36.50;;;;;;4998707;28;20467;-68
2023/07/26 00:24:33;;;;;;;11.37;6.93;;;15.50;36.50;;;;;;5002398;28;20484;-68
2023/07/26 00:27:00;;;;;;;20.07;8.07;;;15.50;36.50;;;;;;5003792;28;20495;-68
2023/07/26 00:29:26;;;;;;;11.70;8.20;;;15.50;36.40;;;;;;5003921;28;20491;-67
2023/07/26 00:31:53;;;;;;;12.60;8.37;;;15.50;36.40;;;;;;5024162;28;20471;-67
2023/07/26 00:34:21;;;;;;;11.27;8.30;;;15.50;36.40;;;;;;5025596;28;20482;-67
2023/07/26 00:36:48;;;;;;;11.20;8.43;;;15.50;36.30;;;;;;5024646;28;20459;-67
2023/07/26 00:39:15;;;;;;;11.50;8.90;;;15.50;36.30;;;;;;5027168;28;20474;-68
2023/07/26 00:41:42;;;;;;;14.17;9.60;;;15.50;36.30;;;;;;5026742;28;20463;-68
2023/07/26 00:44:09;;;;;;;17.17;9.27;;;15.50;36.40;;;;;;5027838;28;20479;-67
2023/07/26 00:46:36;;;;;;;14.00;9.10;;;15.60;36.40;;;;;;5029335;28;21018;-67
2023/07/26 00:49:03;;;;;;;14.13;10.23;;;15.50;36.40;;;;;;5026579;28;20463;-67
2023/07/26 00:51:31;;;;;;;14.80;10.20;;;15.50;36.40;;;;;;5029042;28;21148;-67
2023/07/26 00:53:58;;;;;;;11.67;9.70;;;15.50;36.30;;;;;;5025781;28;21380;-67
2023/07/26 00:56:25;;;;;;;14.50;10.90;;;15.50;36.20;;;;;;5020527;28;20456;-67
2023/07/26 00:58:52;;;;;;;14.60;11.17;;;15.50;36.30;;;;;;5025079;28;20467;-67
2023/07/26 01:01:19;;;;;;;14.23;10.63;;;15.50;36.40;;;;;;5027951;28;20467;-67
2023/07/26 01:03:45;;;;;;;12.57;9.90;;;15.50;36.30;;;;;;5031435;28;20497;-67
2023/07/26 01:06:22;;;;;;;14.73;10.17;;;15.50;36.40;;;;;;5026402;28;20460;-67
2023/07/26 01:09:00;;;;;;;16.50;10.33;;;15.40;36.50;;;;;;5027305;28;20494;-68
2023/07/26 01:11:33;;;;;;;17.10;12.47;;;15.40;36.50;;;;;;5028049;28;20665;-67
2023/07/26 01:14:10;;;;;;;16.63;12.27;;;15.40;36.50;;;;;;5025244;28;20994;-67
2023/07/26 01:16:37;;;;;;;13.40;11.33;;;15.30;36.50;;;;;;5020834;28;20491;-68
2023/07/26 01:19:04;;;;;;;18.37;12.70;;;15.30;36.40;;;;;;5023944;28;20468;-67
2023/07/26 01:21:33;;;;;;;15.93;12.30;;;15.30;36.40;;;;;;5025318;28;20459;-68
2023/07/26 01:24:00;;;;;;;15.57;13.20;;;15.30;36.50;;;;;;5026774;28;20479;-68
2023/07/26 01:26:27;;;;;;;20.20;12.10;;;15.40;36.80;;;;;;5026834;28;20490;-68
2023/07/26 01:28:53;;;;;;;18.73;12.93;;;15.30;36.20;;;;;;5025132;28;20544;-68
2023/07/26 01:31:23;;;;;;;17.03;13.60;;;15.30;36.40;;;;;;5025448;28;20468;-68
2023/07/26 01:33:51;;;;;;;16.90;14.23;;;15.30;36.10;;;;;;5025426;28;20486;-68
2023/07/26 01:36:20;;;;;;;16.60;13.40;;;15.30;36.10;;;;;;5027654;28;20459;-67
2023/07/26 01:38:49;;;;;;;16.87;13.57;;;15.30;35.90;;;;;;5026806;28;20959;-67
2023/07/26 01:41:17;;;;;;;17.00;12.83;;;15.30;35.70;;;;;;5025351;28;20470;-67
2023/07/26 01:43:44;;;;;;;18.30;13.10;;;15.30;35.60;;;;;;5026322;28;20494;-67
2023/07/26 01:46:11;;;;;;;16.57;13.80;;;15.30;35.20;;;;;;5025995;28;20459;-68
2023/07/26 01:48:38;;;;;;;18.70;13.10;;;15.20;35.50;;;;;;5022105;28;20475;-68
2023/07/26 01:51:05;;;;;;;19.37;13.93;;;15.20;35.60;;;;;;5021373;28;20479;-68
2023/07/26 01:53:32;;;;;;;14.40;12.17;;;15.20;35.60;;;;;;5021741;28;20484;-68
2023/07/26 01:56:00;;;;;;;17.03;13.47;;;15.20;35.60;;;;;;5026976;28;20463;-67
2023/07/26 01:58:27;;;;;;;20.37;12.70;;;15.20;35.60;;;;;;5023941;28;20470;-68
2023/07/26 02:00:54;;;;;;;19.50;12.40;;;15.20;35.40;;;;;;5024669;28;20551;-67
2023/07/26 02:03:21;;;;;;;17.00;12.80;;;15.10;35.60;;;;;;5025907;28;20485;-67
2023/07/26 02:05:48;;;;;;;16.40;12.80;;;15.10;35.70;;;;;;5026708;28;20481;-68
2023/07/26 02:08:17;;;;;;;18.83;14.40;;;15.10;35.90;;;;;;5026574;28;20486;-68
2023/07/26 02:10:44;;;;;;;18.33;13.57;;;15.10;35.60;;;;;;5020351;28;20459;-68
2023/07/26 02:13:12;;;;;;;19.57;14.70;;;15.20;35.70;;;;;;5025915;28;21159;-68
2023/07/26 02:15:39;;;;;;;18.30;14.90;;;15.10;36.10;;;;;;5026481;28;20458;-67
2023/07/26 02:18:05;;;;;;;18.93;14.10;;;15.10;36.10;;;;;;5030228;28;20834;-68
2023/07/26 02:20:32;;;;;;;16.03;13.07;;;15.10;36.20;;;;;;5026844;28;20463;-68
2023/07/26 02:23:00;;;;;;;16.23;13.50;;;15.10;36.30;;;;;;5027922;28;20502;-68
2023/07/26 02:25:26;;;;;;;16.90;14.33;;;15.00;36.20;;;;;;5023979;28;20506;-68
2023/07/26 02:27:53;;;;;;;17.40;14.10;;;15.00;36.00;;;;;;5021074;28;20852;-68
2023/07/26 02:30:21;;;;;;;21.43;14.37;;;15.00;35.90;;;;;;5020477;28;20463;-68
2023/07/26 02:32:48;;;;;;;22.83;13.70;;;15.00;35.90;;;;;;5027858;28;20466;-68
2023/07/26 02:35:15;;;;;;;16.87;13.57;;;14.90;36.00;;;;;;5025191;28;20517;-68
2023/07/26 02:37:41;;;;;;;23.57;13.90;;;14.80;35.70;;;;;;5031695;28;20465;-68
2023/07/26 02:40:09;;;;;;;22.00;13.20;;;14.80;35.80;;;;;;5024809;28;20534;-68
2023/07/26 02:42:35;;;;;;;23.23;13.90;;;14.80;35.80;;;;;;5028588;28;20467;-68
2023/07/26 02:45:02;;;;;;;21.07;13.37;;;14.70;35.60;;;;;;5025817;28;20996;-68
2023/07/26 02:47:32;;;;;;;18.90;13.97;;;14.70;35.50;;;;;;5027583;28;20475;-68
2023/07/26 02:50:00;;;;;;;21.43;14.37;;;14.70;35.60;;;;;;5027624;28;20475;-68
2023/07/26 02:52:26;;;;;;;18.60;13.90;;;14.60;35.60;;;;;;5040062;28;20470;-68
2023/07/26 02:54:53;;;;;;;27.63;14.33;;;14.60;35.50;;;;;;5048263;28;20451;-68
2023/07/26 02:57:20;;;;;;;19.90;15.30;;;14.60;35.50;;;;;;5038226;28;20451;-68
2023/07/26 02:59:47;;;;;;;19.43;13.80;;;14.60;35.50;;;;;;5024888;28;20590;-68
2023/07/26 03:02:14;;;;;;;17.00;13.80;;;14.60;35.40;;;;;;5026945;28;20470;-68
2023/07/26 03:04:42;;;;;;;20.50;11.97;;;14.70;35.70;;;;;;5022823;28;20487;-72
2023/07/26 03:07:09;;;;;;;21.20;13.63;;;14.70;35.50;;;;;;5023956;28;20479;-70
2023/07/26 03:09:35;;;;;;;16.70;12.43;;;14.70;35.50;;;;;;5023346;28;20479;-68
2023/07/26 03:12:02;;;;;;;15.50;13.53;;;14.70;35.60;;;;;;5024781;28;20467;-68
2023/07/26 03:14:29;;;;;;;17.03;12.63;;;14.70;35.40;;;;;;5019720;28;20891;-67
2023/07/26 03:16:56;;;;;;;18.03;13.33;;;14.70;35.60;;;;;;5021080;28;20467;-67
2023/07/26 03:19:22;;;;;;;17.67;13.37;;;14.70;35.50;;;;;;5024333;28;20968;-68
2023/07/26 03:21:50;;;;;;;16.50;13.00;;;14.70;35.50;;;;;;5026119;28;20458;-68
2023/07/26 03:24:17;;;;;;;20.03;12.17;;;14.70;35.50;;;;;;5029165;28;20566;-68
2023/07/26 03:26:44;;;;;;;21.80;13.20;;;14.70;35.50;;;;;;5027437;28;20462;-69
2023/07/26 03:29:10;;;;;;;23.10;13.70;;;14.70;35.60;;;;;;5024157;28;20839;-69
2023/07/26 03:31:37;;;;;;;17.67;13.30;;;14.70;35.60;;;;;;5022874;28;20485;-68
2023/07/26 03:34:04;;;;;;;16.13;12.60;;;14.70;35.70;;;;;;5020687;28;20485;-68
2023/07/26 03:36:30;;;;;;;21.10;12.80;;;14.70;35.60;;;;;;5029573;28;20462;-70
2023/07/26 03:38:58;;;;;;;15.53;11.03;;;14.70;35.70;;;;;;5030581;28;21151;-68
2023/07/26 03:41:25;;;;;;;16.90;12.10;;;14.70;35.80;;;;;;5020375;28;20455;-68
2023/07/26 03:43:52;;;;;;;17.10;12.50;;;14.60;35.70;;;;;;5026012;28;20486;-68
2023/07/26 03:46:19;;;;;;;15.57;12.40;;;14.60;35.80;;;;;;5027373;28;20462;-68
2023/07/26 03:48:45;;;;;;;19.47;12.80;;;14.60;35.90;;;;;;5021926;28;20498;-68
2023/07/26 03:51:12;;;;;;;17.33;12.47;;;14.50;36.10;;;;;;5023147;28;20939;-67
2023/07/26 03:53:39;;;;;;;21.10;13.30;;;14.50;36.20;;;;;;5030042;28;20486;-68
2023/07/26 03:56:07;;;;;;;17.27;12.97;;;14.50;36.20;;;;;;5023030;28;20468;-67
2023/07/26 03:58:33;;;;;;;18.40;12.93;;;14.50;36.30;;;;;;5020916;28;20483;-66
2023/07/26 04:01:00;;;;;;;16.70;11.37;;;14.50;36.50;;;;;;5024448;28;20479;-67
2023/07/26 04:03:27;;;;;;;16.63;13.43;;;14.50;36.60;;;;;;5031155;28;20582;-66
2023/07/26 04:05:53;;;;;;;13.93;11.90;;;14.50;36.80;;;;;;5029665;28;20455;-67
2023/07/26 04:08:20;;;;;;;14.70;11.97;;;14.50;36.80;;;;;;5028171;28;20850;-67
2023/07/26 04:10:47;;;;;;;15.80;12.30;;;14.50;36.80;;;;;;5030235;28;20463;-67
2023/07/26 04:13:15;;;;;;;21.23;14.10;;;14.50;37.10;;;;;;5020815;28;20978;-67
2023/07/26 04:15:41;;;;;;;15.37;11.40;;;14.50;36.90;;;;;;5031404;28;20458;-67
2023/07/26 04:18:08;;;;;;;16.50;13.00;;;14.50;37.10;;;;;;5022310;28;20462;-67
2023/07/26 04:20:35;;;;;;;16.07;12.70;;;14.50;37.10;;;;;;5029034;28;20447;-67
2023/07/26 04:23:02;;;;;;;17.07;13.13;;;14.50;37.10;;;;;;5023993;28;20456;-67
2023/07/26 04:25:28;;;;;;;16.00;12.40;;;14.50;37.10;;;;;;5028401;28;20482;-67
2023/07/26 04:27:55;;;;;;;14.70;12.10;;;14.50;37.10;;;;;;5024685;28;20494;-67
2023/07/26 04:30:23;;;;;;;15.87;11.47;;;14.50;37.10;;;;;;5025286;28;20473;-67
2023/07/26 04:32:50;;;;;;;16.43;11.77;;;14.50;37.00;;;;;;5024045;28;20460;-67
2023/07/26 04:35:16;;;;;;;12.53;10.60;;;14.50;37.00;;;;;;5024084;28;20478;-67
2023/07/26 04:37:43;;;;;;;18.50;11.23;;;14.50;37.00;;;;;;5025535;28;20474;-67
2023/07/26 04:40:11;;;;;;;14.50;10.90;;;14.50;36.90;;;;;;5028887;28;20446;-67
2023/07/26 04:42:37;;;;;;;12.87;10.27;;;14.50;36.90;;;;;;5025592;28;20452;-67
2023/07/26 04:45:05;;;;;;;15.30;11.80;;;14.50;36.90;;;;;;5028807;28;20474;-67
2023/07/26 04:47:33;;;;;;;20.53;12.60;;;14.50;36.90;;;;;;5022129;28;20743;-67
2023/07/26 04:50:00;;;;;;;12.70;10.10;;;14.50;36.90;;;;;;5025333;28;20840;-66
2023/07/26 04:52:26;;;;;;;13.40;9.80;;;14.50;36.70;;;;;;5029559;28;20462;-66
2023/07/26 04:54:53;;;;;;;15.13;9.80;;;14.50;36.70;;;;;;5023937;28;20482;-67
2023/07/26 04:57:20;;;;;;;15.90;9.67;;;14.50;36.60;;;;;;5027541;28;20463;-67
2023/07/26 04:59:47;;;;;;;14.97;9.60;;;14.50;36.50;;;;;;5026426;28;20474;-67
2023/07/26 05:02:13;;;;;;;12.00;8.90;;;14.50;36.50;;;;;;5027658;28;20466;-66
2023/07/26 05:04:41;;;;;;;10.97;8.13;;;14.60;36.40;;;;;;5025134;28;20475;-66
2023/07/26 05:07:08;;;;;;;15.07;9.73;;;14.60;36.40;;;;;;5025750;28;20466;-66
2023/07/26 05:09:35;;;;;;;11.47;9.23;;;14.60;36.30;;;;;;5028465;28;20479;-66
2023/07/26 05:12:01;;;;;;;19.50;10.40;;;14.60;36.30;;;;;;5027377;28;20553;-66
2023/07/26 05:14:28;;;;;;;12.87;8.90;;;14.60;36.40;;;;;;5023643;28;20502;-66
2023/07/26 05:16:55;;;;;;;11.83;8.50;;;14.70;36.30;;;;;;5024477;28;20467;-66
2023/07/26 05:19:22;;;;;;;12.37;9.30;;;14.60;36.40;;;;;;5023270;28;20538;-66
2023/07/26 05:21:50;;;;;;;13.27;7.90;;;14.60;36.30;;;;;;5025031;28;20469;-66
2023/07/26 05:24:16;;;;;;;14.70;8.00;;;14.70;36.20;;;;;;5021371;28;21042;-67
2023/07/26 05:26:43;;;;;;;11.10;7.90;;;14.70;36.00;;;;;;5027958;28;20451;-67
2023/07/26 05:29:10;;;;;;;11.00;7.87;;;14.70;35.90;;;;;;5025767;28;20475;-67
2023/07/26 05:31:36;;;;;;;8.03;6.83;;;14.70;35.70;;;;;;5024077;28;20467;-67
2023/07/26 05:34:04;;;;;;;8.47;6.90;;;14.80;35.20;;;;;;5020747;28;20480;-67
2023/07/26 05:36:31;;;;;;;9.30;6.63;;;14.80;35.00;;;;;;5019013;28;20477;-67
2023/07/26 05:38:59;;;;;;;8.10;6.10;;;14.80;34.90;;;;;;5024741;28;20451;-67
2023/07/26 05:41:26;;;;;;;9.43;5.97;;;14.80;35.00;;;;;;5026778;28;20461;-67
2023/07/26 05:43:53;;;;;;;11.03;6.60;;;14.80;35.00;;;;;;5019864;28;20471;-67
2023/07/26 05:46:20;;;;;;;8.20;5.77;;;14.80;34.90;;;;;;5026169;28;20451;-67
2023/07/26 05:48:46;;;;;;;8.33;6.10;;;14.80;34.80;;;;;;5022656;28;20483;-67
2023/07/26 05:51:13;;;;;;;8.87;6.07;;;14.80;34.70;;;;;;5024146;28;20459;-67
2023/07/26 05:53:40;;;;;;;9.13;6.23;;;14.80;34.80;;;;;;5028254;28;20482;-67
2023/07/26 05:56:09;;;;;;;7.63;5.80;;;14.80;34.90;;;;;;5025930;28;20812;-67
2023/07/26 05:58:35;;;;;;;7.33;5.57;;;14.80;35.50;;;;;;5029089;28;20509;-67
2023/07/26 06:01:02;;;;;;;8.27;5.60;;;14.90;34.70;;;;;;5012823;28;21204;-67
2023/07/26 06:03:29;;;;;;;7.30;5.40;;;14.90;34.60;;;;;;5000271;28;20556;-67
2023/07/26 06:05:56;;;;;;;7.83;5.50;;;14.90;34.30;;;;;;5013792;28;20458;-67
2023/07/26 06:08:22;;;;;;;6.80;4.50;;;15.00;34.20;;;;;;5033760;28;20499;-67
2023/07/26 06:10:49;;;;;;;7.73;4.60;;;15.10;34.00;;;;;;5025474;28;20449;-66
2023/07/26 06:13:17;;;;;;;6.80;5.07;;;15.30;33.60;;;;;;5007196;28;20456;-67
2023/07/26 06:15:45;;;;;;;6.87;4.33;;;15.30;33.60;;;;;;5001492;28;20470;-66
2023/07/26 06:18:11;;;;;;;6.50;4.20;;;15.40;33.20;;;;;;5000755;28;20460;-66
2023/07/26 06:20:38;;;;;;;6.30;3.90;;;15.50;33.00;;;;;;5005999;28;20467;-66
2023/07/26 06:23:06;;;;;;;14.40;4.87;;;15.70;32.70;;;;;;5001898;28;20488;-66
2023/07/26 06:25:33;;;;;;;5.50;3.40;;;15.80;32.70;;;;;;5003993;28;20463;-67
2023/07/26 06:28:00;;;;;;;8.10;4.37;;;15.90;32.00;;;;;;4995617;28;20843;-67
2023/07/26 06:30:28;;;;;;;7.30;4.23;;;16.00;31.50;;;;;;5007791;28;20461;-67
2023/07/26 06:32:54;;;;;;;7.20;3.73;;;16.10;31.90;;;;;;5022407;28;20464;-66
2023/07/26 06:35:21;;;;;;;5.50;3.57;;;16.20;31.00;;;;;;5019113;28;20752;-67
2023/07/26 06:37:48;;;;;;;8.73;4.23;;;16.30;30.40;;;;;;5018250;28;20456;-67
2023/07/26 06:40:15;;;;;;;7.80;4.07;;;16.40;29.30;;;;;;5027193;28;20466;-67
2023/07/26 06:42:42;;;;;;;7.13;3.50;;;16.40;29.00;;;;;;5019813;28;20464;-67
2023/07/26 06:45:09;;;;;;;6.50;3.47;;;16.40;28.50;;;;;;5015276;28;20479;-67
2023/07/26 06:47:37;;;;;;;5.73;3.47;;;16.40;28.30;;;;;;5021483;28;20462;-66
2023/07/26 06:50:04;;;;;;;6.80;3.20;;;16.40;28.30;;;;;;5027467;28;20487;-67
2023/07/26 06:52:31;;;;;;;5.70;3.30;;;16.40;28.30;;;;;;5027283;28;20465;-66
2023/07/26 06:54:58;;;;;;;6.13;3.70;;;16.50;28.50;;;;;;5031930;28;20477;-66
2023/07/26 06:57:24;;;;;;;5.17;3.03;;;16.70;28.40;;;;;;5031633;28;20464;-67
2023/07/26 06:59:51;;;;;;;5.37;3.43;;;16.90;27.80;;;;;;5028962;28;20466;-67
2023/07/26 07:02:18;;;;;;;5.70;2.90;;;17.20;26.70;;;;;;5026099;28;20500;-67
2023/07/26 07:04:46;;;;;;;5.80;2.80;;;17.30;25.50;;;;;;5031799;28;20475;-67
2023/07/26 07:07:13;;;;;;;4.87;2.73;;;17.40;24.80;;;;;;5032516;28;20969;-67
2023/07/26 07:09:40;;;;;;;8.50;3.13;;;17.50;24.10;;;;;;5027590;28;20479;-68
2023/07/26 07:12:09;;;;;;;4.30;2.03;;;17.60;24.00;;;;;;5023851;28;20465;-67
2023/07/26 07:14:35;;;;;;;4.00;2.23;;;17.70;22.60;;;;;;5035650;28;20474;-67
2023/07/26 07:17:02;;;;;;;5.43;2.50;;;17.60;22.40;;;;;;5024005;28;20466;-67
2023/07/26 07:19:29;;;;;;;5.80;2.63;;;17.60;22.20;;;;;;5032422;28;20455;-67
2023/07/26 07:21:57;;;;;;;4.07;1.90;;;17.60;22.40;;;;;;5031216;28;20459;-67
2023/07/26 07:24:24;;;;;;;4.70;2.50;;;17.60;22.10;;;;;;5026607;28;20828;-66
2023/07/26 07:26:51;;;;;;;6.50;2.40;;;17.60;22.30;;;;;;5030091;28;20517;-66
2023/07/26 07:29:17;;;;;;;5.30;2.97;;;17.60;22.20;;;;;;5032082;28;20477;-67
2023/07/26 07:31:44;;;;;;;5.80;3.00;;;17.60;22.00;;;;;;5030534;28;20470;-66
2023/07/26 07:34:11;;;;;;;4.97;2.40;;;17.50;21.30;;;;;;5027932;22;20857;-69
2023/07/26 07:36:37;;;;;;;6.17;2.10;;;17.50;21.10;;;;;;5009581;28;20464;-68
2023/07/26 07:39:08;;;;;;;4.57;2.30;;;17.40;21.40;;;;;;5012334;28;20463;-68
2023/07/26 07:41:34;;;;;;;5.23;2.30;;;17.40;21.70;;;;;;5012178;28;20471;-68
2023/07/26 07:44:01;;;;;;;6.20;2.60;;;17.30;21.80;;;;;;5012300;28;20483;-68
2023/07/26 07:46:28;;;;;;;5.07;2.30;;;17.30;21.60;;;;;;5008681;28;20964;-68
2023/07/26 07:48:55;;;;;;;5.57;2.07;;;17.20;21.80;;;;;;5010335;28;20476;-68
2023/07/26 07:51:22;;;;;;;4.47;2.30;;;17.20;22.20;;;;;;5007182;28;20474;-68
2023/07/26 07:53:49;;;;;;;6.30;2.50;;;17.10;22.10;;;;;;5008297;28;20559;-68
2023/07/26 07:56:17;;;;;;;5.53;3.07;;;17.10;22.40;;;;;;5008939;28;20499;-68
2023/07/26 07:58:44;;;;;;;4.10;2.53;;;17.10;22.40;;;;;;5003794;28;20523;-68
2023/07/26 08:01:11;;;;;;;6.30;2.80;;;17.10;22.60;;;;;;5003540;28;20475;-68
2023/07/26 08:03:37;;;;;;;6.00;2.43;;;17.10;22.30;;;;;;5009780;28;20488;-68
2023/07/26 08:06:04;;;;;;;4.50;2.43;;;17.00;22.60;;;;;;5011261;28;20459;-69
2023/07/26 08:08:31;;;;;;;5.50;3.13;;;17.10;23.30;;;;;;5011008;28;20501;-68
2023/07/26 08:10:57;;;;;;;8.07;2.40;;;17.10;23.50;;;;;;5010079;28;20460;-68
2023/07/26 08:13:25;;;;;;;6.87;3.13;;;17.20;23.10;;;;;;5011089;28;20475;-68
2023/07/26 08:15:52;;;;;;;7.43;3.33;;;17.40;23.10;;;;;;5011479;28;20499;-68
2023/07/26 08:18:20;;;;;;;4.10;2.40;;;17.60;22.40;;;;;;5010181;28;20474;-68
2023/07/26 08:20:47;;;;;;;5.17;2.73;;;17.90;22.20;;;;;;5010271;28;20538;-68
2023/07/26 08:23:14;;;;;;;6.27;2.87;;;18.20;21.60;;;;;;5006176;28;20948;-68
2023/07/26 08:25:41;;;;;;;7.50;3.33;;;18.60;20.80;;;;;;5011762;28;20530;-68
2023/07/26 08:28:08;;;;;;;6.10;3.07;;;19.20;19.70;;;;;;5008614;28;20455;-68
2023/07/26 08:30:36;;;;;;;6.17;3.50;;;19.60;18.70;;;;;;5008720;28;20470;-69
2023/07/26 08:33:03;;;;;;;4.50;3.07;;;20.00;17.50;;;;;;5010628;28;20467;-68
2023/07/26 08:35:30;;;;;;;6.60;3.30;;;20.20;17.20;;;;;;5009010;28;20483;-68
2023/07/26 08:37:57;;;;;;;14.20;4.70;;;20.20;16.40;;;;;;5007887;28;20475;-69
2023/07/26 08:40:23;;;;;;;8.30;4.17;;;20.30;16.50;;;;;;5010658;28;20463;-68
2023/07/26 08:42:50;;;;;;;10.00;4.27;;;20.70;15.80;;;;;;5008350;28;20816;-68
2023/07/26 08:45:17;;;;;;;7.10;3.90;;;21.00;14.80;;;;;;5006865;28;21100;-68
2023/07/26 08:47:46;;;;;;;6.33;3.97;;;21.30;14.50;;;;;;5011068;28;20496;-68
2023/07/26 08:50:12;;;;;;;5.30;3.27;;;21.50;13.70;;;;;;5008798;28;21106;-68
2023/07/26 08:52:40;;;;;;;6.50;3.50;;;21.50;13.50;;;;;;5006904;28;20475;-68
2023/07/26 08:55:08;;;;;;;5.37;3.27;;;21.90;12.40;;;;;;5010459;28;20491;-68
2023/07/26 08:57:35;;;;;;;10.23;3.60;;;22.10;11.90;;;;;;5007412;28;20460;-68
2023/07/26 09:00:05;;;;;;;7.23;3.73;;;22.80;11.10;;;;;;5010055;28;20460;-68
2023/07/26 09:02:33;;;;;;;5.17;3.20;;;22.70;9.80;;;;;;5002938;28;20503;-68
2023/07/26 09:05:01;;;;;;;7.27;3.57;;;22.40;10.50;;;;;;5008864;28;20503;-68
2023/07/26 09:07:28;;;;;;;5.80;3.00;;;22.10;10.60;;;;;;5010009;28;20848;-68
2023/07/26 09:09:55;;;;;;;7.90;3.40;;;22.10;10.10;;;;;;5010253;28;20479;-69
2023/07/26 09:12:25;;;;;;;5.83;3.13;;;22.20;9.60;;;;;;5008367;28;20932;-68
2023/07/26 09:14:55;;;;;;;6.37;3.47;;;22.10;10.30;;;;;;5008368;28;20491;-69
2023/07/26 09:17:22;;;;;;;6.40;3.30;;;21.90;10.70;;;;;;5009561;28;20468;-68
2023/07/26 09:19:50;;;;;;;9.77;3.27;;;21.60;10.70;;;;;;5007871;28;20893;-68
2023/07/26 09:22:18;;;;;;;6.40;3.00;;;21.30;11.60;;;;;;5005721;28;20467;-68
2023/07/26 09:24:50;;;;;;;11.50;4.00;;;21.00;11.80;;;;;;5007657;28;20475;-68
2023/07/26 09:27:19;;;;;;;5.57;3.40;;;20.70;12.50;;;;;;5008083;28;20460;-68
2023/07/26 09:29:55;;;;;;;7.63;3.37;;;20.60;13.10;;;;;;5004931;28;20480;-68
2023/07/26 09:32:28;;;;;;;6.47;3.20;;;20.50;14.00;;;;;;5007918;28;20488;-69
2023/07/26 09:34:59;;;;;;;5.27;3.13;;;20.60;15.10;;;;;;5009048;28;20561;-68
2023/07/26 09:37:27;;;;;;;5.90;3.43;;;20.70;14.70;;;;;;5006713;28;20463;-68
2023/07/26 09:39:54;;;;;;;9.03;3.43;;;20.80;13.80;;;;;;5005120;28;20526;-68
2023/07/26 09:42:21;;;;;;;9.13;3.50;;;20.90;13.60;;;;;;5008192;28;20927;-68
2023/07/26 09:44:48;;;;;;;7.00;3.40;;;20.90;13.00;;;;;;5006608;28;20516;-68
2023/07/26 09:47:16;;;;;;;8.00;3.33;;;20.80;12.80;;;;;;5008608;28;20460;-68
2023/07/26 09:49:51;;;;;;;6.60;3.47;;;20.60;13.30;;;;;;5006286;28;20515;-68
2023/07/26 09:52:20;;;;;;;6.27;3.03;;;20.40;13.60;;;;;;5006100;28;20952;-68
2023/07/26 09:54:49;;;;;;;6.30;3.20;;;20.10;14.30;;;;;;5005431;28;20519;-68
2023/07/26 09:57:17;;;;;;;7.70;5.33;;;19.80;14.90;;;;;;5009567;28;20463;-68
2023/07/26 09:59:45;;;;;;;6.77;3.17;;;19.50;16.70;;;;;;5008805;28;20456;-68
2023/07/26 10:02:13;;;;;;;5.13;2.40;;;19.20;15.30;;;;;;5004562;28;20476;-68
2023/07/26 10:04:48;;;;;;;5.63;2.37;;;18.80;15.10;;;;;;5003865;28;20553;-69
2023/07/26 10:07:15;;;;;;;4.67;2.27;;;18.40;15.60;;;;;;5009042;28;20463;-69
2023/07/26 10:09:44;;;;;;;4.90;2.57;;;18.00;16.50;;;;;;5003044;28;20508;-69
2023/07/26 10:12:13;;;;;;;5.73;2.17;;;17.60;17.70;;;;;;5009976;28;20514;-69
2023/07/26 10:14:40;;;;;;;5.50;2.57;;;17.30;19.20;;;;;;5004731;28;20484;-70
2023/07/26 10:17:07;;;;;;;4.87;2.00;;;17.10;20.00;;;;;;5005981;28;20482;-68
2023/07/26 10:19:35;;;;;;;10.33;2.33;;;16.80;20.70;;;;;;5008132;28;20459;-70
2023/07/26 10:22:03;;;;;;;5.50;2.40;;;16.70;21.90;;;;;;5004767;28;20816;-69
2023/07/26 10:24:31;;;;;;;4.63;2.47;;;16.60;23.50;;;;;;5004024;28;20839;-69
2023/07/26 10:26:59;;;;;;;4.93;2.90;;;16.60;24.30;;;;;;5006585;28;20453;-70
2023/07/26 10:29:27;;;;;;;6.93;2.47;;;16.70;25.60;;;;;;5009345;28;20487;-69
2023/07/26 10:32:01;;;;;;;5.70;2.33;;;16.70;24.70;;;;;;5012319;28;21006;-69
2023/07/26 10:34:28;;;;;;;5.17;2.20;;;16.80;23.80;;;;;;5010503;28;20507;-69
2023/07/26 10:36:55;;;;;;;3.60;1.80;;;16.80;24.20;;;;;;5010913;28;20463;-69
2023/07/26 10:39:32;;;;;;;5.30;1.70;;;16.90;24.10;;;;;;5010668;28;20460;-69
2023/07/26 10:41:59;;;;;;;4.57;2.23;;;17.00;23.40;;;;;;5012378;28;20461;-69
2023/07/26 10:44:27;;;;;;;7.70;2.07;;;17.10;23.50;;;;;;5012315;28;20479;-69
2023/07/26 10:46:55;;;;;;;4.87;2.13;;;17.20;23.90;;;;;;5011049;28;20460;-69
2023/07/26 10:49:27;;;;;;;3.73;1.80;;;17.40;24.10;;;;;;5012027;28;20482;-69
2023/07/26 10:52:00;;;;;;;3.70;1.70;;;17.70;24.10;;;;;;5011037;28;20468;-69
2023/07/26 10:54:41;;;;;;;3.93;1.60;;;18.10;23.70;;;;;;5009942;28;20572;-69
2023/07/26 10:57:15;;;;;;;3.87;1.67;;;18.40;21.80;;;;;;5010221;28;20464;-69
2023/07/26 10:59:57;;;;;;;4.93;1.70;;;18.60;19.90;;;;;;5010361;28;21046;-68
2023/07/26 11:02:38;;;;;;;3.90;1.43;;;18.70;19.00;;;;;;5008955;28;20475;-69
2023/07/26 11:05:07;;;;;;;4.90;1.93;;;18.60;19.70;;;;;;5011905;28;20518;-68
2023/07/26 11:07:58;;;;;;;4.20;1.97;;;18.50;19.90;;;;;;5012602;28;20984;-68
2023/07/26 11:10:28;;;;;;;5.47;2.40;;;18.30;20.10;;;;;;5011791;28;20484;-68
2023/07/26 11:13:06;;;;;;;3.90;1.60;;;18.10;20.40;;;;;;5006952;28;20535;-68
2023/07/26 11:15:36;;;;;;;4.67;1.87;;;17.90;21.00;;;;;;5012611;28;20459;-68
2023/07/26 11:18:03;;;;;;;5.20;2.00;;;17.70;21.70;;;;;;5012565;28;20462;-68
2023/07/26 11:20:29;;;;;;;7.20;1.87;;;17.50;22.40;;;;;;5008667;28;20451;-68
2023/07/26 11:22:56;;;;;;;3.97;1.67;;;17.30;22.60;;;;;;5012892;28;20471;-68
2023/07/26 11:25:23;;;;;;;3.77;1.57;;;17.20;23.10;;;;;;5011749;28;20487;-68
2023/07/26 11:27:50;;;;;;;4.50;2.40;;;17.00;23.10;;;;;;5010052;28;20467;-68
2023/07/26 11:30:18;;;;;;;5.87;2.50;;;16.90;23.00;;;;;;5009633;28;20484;-68
2023/07/26 11:32:47;;;;;;;5.50;2.20;;;16.70;23.60;;;;;;5011005;28;21836;-68
2023/07/26 11:35:15;;;;;;;5.43;2.70;;;16.50;24.60;;;;;;5012044;28;20475;-68
2023/07/26 11:37:51;;;;;;;4.53;2.60;;;16.40;25.30;;;;;;5010095;28;20459;-68
2023/07/26 11:40:18;;;;;;;7.57;2.97;;;16.40;26.20;;;;;;5007616;28;20483;-68
2023/07/26 11:42:45;;;;;;;4.70;2.13;;;16.40;26.70;;;;;;5009169;28;20971;-68
2023/07/26 11:45:13;;;;;;;4.40;1.97;;;16.50;27.00;;;;;;5009466;28;20480;-68
2023/07/26 11:47:41;;;;;;;5.47;2.23;;;16.50;26.70;;;;;;5010304;28;20460;-68
2023/07/26 11:50:09;;;;;;;3.57;1.50;;;16.60;26.40;;;;;;5011744;28;20479;-68
2023/07/26 11:52:38;;;;;;;4.17;1.80;;;16.60;25.70;;;;;;5008322;28;20471;-69
2023/07/26 11:55:06;;;;;;;4.23;1.47;;;16.70;25.40;;;;;;5009863;28;20489;-68
2023/07/26 11:57:33;;;;;;;4.10;1.70;;;16.80;25.20;;;;;;5011481;28;20467;-69
2023/07/26 12:00:04;;;;;;;6.10;1.80;;;16.90;24.70;;;;;;5008869;28;20559;-68
2023/07/26 12:02:31;;;;;;;9.07;2.23;;;17.20;23.50;;;;;;5007906;28;20534;-67
2023/07/26 12:05:19;;;;;;;5.57;1.63;;;17.40;21.70;;;;;;5008142;28;21022;-68
2023/07/26 12:07:47;;;;;;;3.80;1.20;;;17.50;21.20;;;;;;5010478;28;20475;-69
2023/07/26 12:10:14;;;;;;;3.23;1.10;;;17.60;20.50;;;;;;5009805;28;21112;-67
2023/07/26 12:12:42;;;;;;;4.10;1.50;;;17.60;20.20;;;;;;5006836;28;20471;-68
2023/07/26 12:15:10;;;;;;;4.30;1.80;;;17.50;20.00;;;;;;5010558;28;20486;-68
2023/07/26 12:17:37;;;;;;;5.17;1.80;;;17.60;20.40;;;;;;5005849;28;20464;-68
2023/07/26 12:20:06;;;;;;;5.77;2.00;;;17.60;20.90;;;;;;5006050;28;20874;-68
2023/07/26 12:22:34;;;;;;;5.13;2.03;;;17.60;20.80;;;;;;5011252;28;20464;-68
2023/07/26 12:25:02;;;;;;;5.17;1.80;;;17.50;20.80;;;;;;5009875;28;20488;-67
2023/07/26 12:27:34;;;;;;;3.60;1.40;;;17.50;20.90;;;;;;5009854;28;20487;-68
2023/07/26 12:30:00;;;;;;;6.05;1.50;;;17.30;20.70;;;;;;5008014;28;20505;-67
2023/07/26 12:32:27;;;;;;;4.03;1.33;;;17.20;21.00;;;;;;5010967;28;20244;-72
2023/07/26 12:34:54;;;;;;;6.33;1.93;;;17.10;21.40;;;;;;5008633;28;20522;-67
2023/07/26 12:37:30;;;;;;;4.73;2.37;;;17.00;22.40;;;;;;5010940;28;20470;-67
2023/07/26 12:39:58;;;;;;;5.00;2.13;;;17.00;22.20;;;;;;5010272;28;20987;-67